createdAt,value
2022-11-30T00:02:58.464Z,52.40
2022-11-30T00:08:13.947Z,52.10
2022-11-30T00:13:29.306Z,52.30
2022-11-30T00:18:44.968Z,52.20
2022-11-30T00:23:59.948Z,52.30
2022-11-30T00:29:15.217Z,52.20
2022-11-30T00:34:30.962Z,52.20
2022-11-30T00:39:45.967Z,52.30
2022-11-30T00:45:01.024Z,52.30
2022-11-30T00:50:15.720Z,52.40
2022-11-30T00:55:31.315Z,52.20
2022-11-30T01:00:46.964Z,52.20
2022-11-30T01:06:02.282Z,52.20
2022-11-30T01:11:18.162Z,52.10
2022-11-30T01:16:33.719Z,52.10
2022-11-30T01:21:48.955Z,52.20
2022-11-30T01:27:03.942Z,52.40
2022-11-30T01:32:19.301Z,52.10
2022-11-30T01:37:35.283Z,52.10
2022-11-30T01:42:50.986Z,52.00
2022-11-30T01:48:06.323Z,51.90
2022-11-30T01:53:22.323Z,52.00
2022-11-30T01:58:37.939Z,51.90
2022-11-30T02:03:52.980Z,52.60
2022-11-30T02:09:08.314Z,52.00
2022-11-30T02:14:23.912Z,52.10
2022-11-30T02:19:39.009Z,52.10
2022-11-30T02:24:53.971Z,52.10
2022-11-30T02:30:08.952Z,52.00
2022-11-30T02:35:24.233Z,52.10
2022-11-30T02:40:41.946Z,52.10
2022-11-30T02:45:57.011Z,52.30
2022-11-30T02:51:11.996Z,52.50
2022-11-30T02:56:27.246Z,52.40
2022-11-30T03:01:43.340Z,52.50
2022-11-30T03:06:59.320Z,52.40
2022-11-30T03:12:15.027Z,52.30
2022-11-30T03:17:31.282Z,52.30
2022-11-30T03:22:46.699Z,52.30
2022-11-30T03:28:01.775Z,52.20
2022-11-30T03:33:17.261Z,52.10
2022-11-30T03:38:32.967Z,52.10
2022-11-30T03:43:47.949Z,52.20
2022-11-30T03:49:02.994Z,52.20
2022-11-30T03:54:18.283Z,52.10
2022-11-30T03:59:33.978Z,52.30
2022-11-30T04:04:49.445Z,52.40
2022-11-30T04:10:08.457Z,52.60
2022-11-30T04:15:24.015Z,52.80
2022-11-30T04:20:40.711Z,52.50
2022-11-30T04:25:56.002Z,52.80
2022-11-30T04:31:11.285Z,53.10
2022-11-30T04:36:26.922Z,53.00
2022-11-30T04:41:42.293Z,53.10
2022-11-30T04:46:58.064Z,52.30
2022-11-30T04:52:13.299Z,53.40
2022-11-30T04:57:28.915Z,53.50
2022-11-30T05:02:49.009Z,53.50
2022-11-30T05:08:07.947Z,54.10
2022-11-30T05:13:22.749Z,53.40
2022-11-30T05:18:38.326Z,53.40
2022-11-30T05:23:54.248Z,53.10
2022-11-30T05:29:09.957Z,52.90
2022-11-30T05:34:25.259Z,52.80
2022-11-30T05:39:41.247Z,52.80
2022-11-30T05:44:56.961Z,52.80
2022-11-30T05:50:12.065Z,52.60
2022-11-30T05:55:26.768Z,52.30
2022-11-30T06:00:41.939Z,52.10
2022-11-30T06:05:56.991Z,52.10
2022-11-30T06:11:12.376Z,52.00
2022-11-30T06:16:27.786Z,52.00
2022-11-30T06:21:42.959Z,52.00
2022-11-30T06:26:58.065Z,52.00
2022-11-30T06:32:12.959Z,51.90
2022-11-30T06:37:28.027Z,51.70
2022-11-30T06:42:42.990Z,51.70
2022-11-30T06:47:58.024Z,51.70
2022-11-30T06:53:13.049Z,51.50
2022-11-30T06:58:28.000Z,51.50
2022-11-30T07:03:43.069Z,51.50
2022-11-30T07:08:58.283Z,51.50
2022-11-30T07:14:14.042Z,51.50
2022-11-30T07:19:28.949Z,51.50
2022-11-30T07:24:44.063Z,51.40
2022-11-30T07:29:59.023Z,51.40
2022-11-30T07:35:13.966Z,51.30
2022-11-30T07:40:28.989Z,51.40
2022-11-30T07:45:43.756Z,51.30
2022-11-30T07:50:59.320Z,51.20
2022-11-30T07:56:15.168Z,51.30
2022-11-30T08:01:31.144Z,51.20
2022-11-30T08:06:45.977Z,51.20
2022-11-30T08:12:01.327Z,51.20
2022-11-30T08:17:17.088Z,51.20
2022-11-30T08:22:31.987Z,51.10
2022-11-30T08:27:47.011Z,51.10
2022-11-30T08:33:02.040Z,51.00
2022-11-30T08:38:17.004Z,51.00
2022-11-30T08:43:31.977Z,50.90
2022-11-30T08:48:47.047Z,50.80
2022-11-30T08:54:02.050Z,50.60
2022-11-30T08:59:17.260Z,50.40
2022-11-30T09:04:33.025Z,50.20
2022-11-30T09:09:48.055Z,49.80
2022-11-30T09:15:03.319Z,49.70
2022-11-30T09:20:19.014Z,49.50
2022-11-30T09:25:33.976Z,49.40
2022-11-30T09:30:49.413Z,49.40
2022-11-30T09:36:05.013Z,49.50
2022-11-30T09:41:20.019Z,49.60
2022-11-30T09:46:35.092Z,49.70
2022-11-30T09:51:50.002Z,49.60
2022-11-30T09:57:04.988Z,49.60
2022-11-30T10:02:20.115Z,49.60
2022-11-30T10:07:35.053Z,49.40
2022-11-30T10:12:50.315Z,49.20
2022-11-30T10:18:06.040Z,49.20
2022-11-30T10:23:21.026Z,49.00
2022-11-30T10:28:47.125Z,48.80
2022-11-30T10:34:04.319Z,48.50
2022-11-30T10:39:20.025Z,48.40
2022-11-30T10:44:35.021Z,48.30
2022-11-30T10:49:50.006Z,48.00
2022-11-30T10:55:05.434Z,47.90
2022-11-30T11:00:20.973Z,47.80
2022-11-30T11:05:36.339Z,47.80
2022-11-30T11:10:51.748Z,47.90
2022-11-30T11:16:07.042Z,47.50
2022-11-30T11:21:22.022Z,47.00
2022-11-30T11:26:36.996Z,46.60
2022-11-30T11:31:51.736Z,46.70
2022-11-30T11:37:06.747Z,46.90
2022-11-30T11:42:22.675Z,46.90
2022-11-30T11:47:39.024Z,47.00
2022-11-30T11:52:54.016Z,51.30
2022-11-30T11:58:09.118Z,53.20
2022-11-30T12:03:23.980Z,52.90
2022-11-30T12:08:39.351Z,52.90
2022-11-30T12:13:55.032Z,52.90
2022-11-30T12:19:10.284Z,52.60
2022-11-30T12:24:26.035Z,52.80
2022-11-30T12:29:41.027Z,52.30
2022-11-30T12:34:56.307Z,50.90
2022-11-30T12:40:12.122Z,50.10
2022-11-30T12:45:26.957Z,49.60
2022-11-30T12:50:41.997Z,48.70
2022-11-30T12:55:56.997Z,48.00
2022-11-30T13:01:12.093Z,47.60
2022-11-30T13:06:27.011Z,47.40
2022-11-30T13:11:41.979Z,47.30
2022-11-30T13:16:57.006Z,47.00
2022-11-30T13:22:12.020Z,46.80
2022-11-30T13:27:27.032Z,46.90
2022-11-30T13:32:58.027Z,46.80
2022-11-30T13:38:35.817Z,46.40
2022-11-30T13:43:49.127Z,46.20
2022-11-30T13:49:04.037Z,46.20
2022-11-30T13:54:27.844Z,45.90
2022-11-30T13:59:44.115Z,45.90
2022-11-30T14:04:59.306Z,45.80
2022-11-30T14:10:15.315Z,46.80
2022-11-30T14:15:31.045Z,46.70
2022-11-30T14:20:46.020Z,46.50
2022-11-30T14:26:01.705Z,46.20
2022-11-30T14:31:19.075Z,46.90
2022-11-30T14:36:34.075Z,46.80
2022-11-30T14:41:48.760Z,46.60
2022-11-30T14:47:03.863Z,46.50
2022-11-30T14:52:19.002Z,46.30
2022-11-30T14:57:34.080Z,46.20
2022-11-30T15:02:49.004Z,46.00
2022-11-30T15:08:04.079Z,45.80
2022-11-30T15:13:19.262Z,45.70
2022-11-30T15:18:35.035Z,45.70
2022-11-30T15:23:51.543Z,45.60
2022-11-30T15:29:07.067Z,45.50
2022-11-30T15:34:21.812Z,45.60
2022-11-30T15:39:37.040Z,45.50
2022-11-30T15:44:52.361Z,45.50
2022-11-30T15:50:08.162Z,45.50
2022-11-30T15:55:23.052Z,45.50
2022-11-30T16:00:38.022Z,45.50
2022-11-30T16:05:53.053Z,45.50
2022-11-30T16:11:08.360Z,45.40
2022-11-30T16:16:24.179Z,45.40
2022-11-30T16:21:39.020Z,45.40
2022-11-30T16:26:54.360Z,45.40
2022-11-30T16:32:10.027Z,45.40
2022-11-30T16:37:25.390Z,45.30
2022-11-30T16:42:41.000Z,45.40
2022-11-30T16:47:55.862Z,45.30
2022-11-30T16:53:11.020Z,45.50
2022-11-30T16:58:25.777Z,45.70
2022-11-30T17:03:41.067Z,45.70
2022-11-30T17:08:56.048Z,45.70
2022-11-30T17:14:11.041Z,45.60
2022-11-30T17:19:26.033Z,45.60
2022-11-30T17:24:41.027Z,45.60
2022-11-30T17:29:56.502Z,45.70
2022-11-30T17:35:12.064Z,45.70
2022-11-30T17:40:27.304Z,45.90
2022-11-30T17:45:43.454Z,46.10
2022-11-30T17:50:59.071Z,46.20
2022-11-30T17:56:13.834Z,46.30
2022-11-30T18:01:29.141Z,46.30
2022-11-30T18:06:44.375Z,46.30
2022-11-30T18:12:00.014Z,46.40
2022-11-30T18:17:15.082Z,46.30
2022-11-30T18:22:30.099Z,46.30
2022-11-30T18:27:45.118Z,46.30
2022-11-30T18:33:00.148Z,46.40
2022-11-30T18:38:16.046Z,46.30
2022-11-30T18:43:31.310Z,46.20
2022-11-30T18:48:47.028Z,46.30
2022-11-30T18:54:02.047Z,46.40
2022-11-30T18:59:17.099Z,46.30
2022-11-30T19:04:32.115Z,46.20
2022-11-30T19:09:47.012Z,46.10
2022-11-30T19:15:02.026Z,46.00
2022-11-30T19:20:17.068Z,46.10
2022-11-30T19:25:32.028Z,46.10
2022-11-30T19:30:46.810Z,46.00
2022-11-30T19:36:02.085Z,46.00
2022-11-30T19:41:17.086Z,46.00
2022-11-30T19:46:32.291Z,46.20
2022-11-30T19:51:48.036Z,46.40
2022-11-30T19:57:03.038Z,46.20
2022-11-30T20:02:18.128Z,46.20
2022-11-30T20:07:32.860Z,46.10
2022-11-30T20:12:48.029Z,46.20
2022-11-30T20:18:03.105Z,46.20
2022-11-30T20:23:18.070Z,46.30
2022-11-30T20:28:32.910Z,46.40
2022-11-30T20:33:48.423Z,46.30
2022-11-30T20:39:04.092Z,46.20
2022-11-30T20:44:19.417Z,46.20
2022-11-30T20:49:35.379Z,49.50
2022-11-30T20:54:51.432Z,51.60
2022-11-30T21:00:12.718Z,52.60
2022-11-30T21:05:28.003Z,52.90
2022-11-30T21:10:43.018Z,53.70
2022-11-30T21:15:58.206Z,53.10
2022-11-30T21:21:13.036Z,53.10
2022-11-30T21:26:28.105Z,53.10
2022-11-30T21:31:43.045Z,53.10
2022-11-30T21:36:58.051Z,53.00
2022-11-30T21:42:13.119Z,53.20
2022-11-30T21:47:28.083Z,53.00
2022-11-30T21:52:43.014Z,53.00
2022-11-30T21:57:58.064Z,53.00
2022-11-30T22:03:18.125Z,52.90
2022-11-30T22:08:35.081Z,52.80
2022-11-30T22:13:49.798Z,52.50
2022-11-30T22:19:05.059Z,52.50
2022-11-30T22:24:20.364Z,52.40
2022-11-30T22:29:36.052Z,52.60
2022-11-30T22:34:51.459Z,52.50
2022-11-30T22:40:07.095Z,52.60
2022-11-30T22:45:22.071Z,53.10
2022-11-30T22:50:37.269Z,52.30
2022-11-30T22:55:53.132Z,52.30
2022-11-30T23:01:08.026Z,52.30
2022-11-30T23:06:23.061Z,52.40
2022-11-30T23:11:38.078Z,52.30
2022-11-30T23:16:52.855Z,52.40
2022-11-30T23:22:08.030Z,52.40
2022-11-30T23:27:23.062Z,52.60
2022-11-30T23:32:38.028Z,52.50
2022-11-30T23:37:53.399Z,52.70
2022-11-30T23:43:09.011Z,52.60
2022-11-30T23:48:24.046Z,52.50
2022-11-30T23:53:39.947Z,52.60
2022-11-30T23:58:56.040Z,52.80
